首页
METAR-TAF:

METAR-TAF

机场 :

空军基地

Niederstetten, 德国

纬度: 49-24N, 经度: 009-58E, 海拔: 468米

当前天气观测

该预报发布于19分钟前的21:20 UTC
风速11节,风向东北
温度 1°C
湿度 75%
气压 1025 hPa
能见度10公里或以上
多云层高于2000英尺
多云层高于5000英尺

METAR: ETHN 292120Z 04011KT 9999 BKN020 BKN050 01/M03 Q1025 WHT

时间: 23:39 (21:39 UTC)


TAF: 丢失

超过4000个机场的气象观测和天气预报(METAR&TAF报告)。

可查询的气象台以黄色和红色小点在地图上表示。

将鼠标移到小点上方,可查看气象台名称。

然后点击查看天气观测和预报。

如需切换地图:点击带黑十字的绿色按钮放大地图;点击带横线的绿色按钮缩小地图;或者点击绿色箭头查看邻近地区的地图。


METAR-TAF: